createdAt,value
2017-07-31T00:01:39.695Z,20.50
2017-07-31T00:04:07.809Z,20.50
2017-07-31T00:06:35.666Z,20.50
2017-07-31T00:09:04.193Z,20.50
2017-07-31T00:11:35.585Z,20.50
2017-07-31T00:14:04.267Z,20.50
2017-07-31T00:16:31.823Z,20.40
2017-07-31T00:18:59.302Z,20.40
2017-07-31T00:21:27.546Z,20.40
2017-07-31T00:23:55.012Z,20.40
2017-07-31T00:26:22.527Z,20.40
2017-07-31T00:28:49.981Z,20.30
2017-07-31T00:31:17.579Z,20.30
2017-07-31T00:33:45.103Z,20.30
2017-07-31T00:36:12.550Z,20.40
2017-07-31T00:38:40.076Z,20.40
2017-07-31T00:41:07.615Z,20.40
2017-07-31T00:43:35.256Z,20.20
2017-07-31T00:46:02.747Z,20.10
2017-07-31T00:48:30.326Z,20.00
2017-07-31T00:50:57.795Z,20.00
2017-07-31T00:53:25.317Z,19.90
2017-07-31T00:55:52.778Z,19.80
2017-07-31T00:58:20.249Z,19.80
2017-07-31T01:00:47.788Z,19.80
2017-07-31T01:03:15.291Z,19.70
2017-07-31T01:05:42.747Z,19.60
2017-07-31T01:08:10.251Z,19.60
2017-07-31T01:10:37.808Z,19.60
2017-07-31T01:13:05.283Z,19.60
2017-07-31T01:15:32.735Z,19.60
2017-07-31T01:18:00.251Z,19.60
2017-07-31T01:20:27.788Z,19.60
2017-07-31T01:22:55.247Z,19.60
2017-07-31T01:25:22.864Z,19.50
2017-07-31T01:27:50.537Z,19.40
2017-07-31T01:30:18.155Z,19.30
2017-07-31T01:32:45.909Z,19.30
2017-07-31T01:35:13.376Z,19.30
2017-07-31T01:37:40.876Z,19.40
2017-07-31T01:40:08.544Z,19.40
2017-07-31T01:42:36.026Z,19.40
2017-07-31T01:45:03.607Z,19.40
2017-07-31T01:47:31.951Z,19.30
2017-07-31T01:49:59.473Z,19.30
2017-07-31T01:52:27.050Z,19.20
2017-07-31T01:54:54.593Z,19.20
2017-07-31T01:57:22.061Z,19.10
2017-07-31T01:59:49.555Z,19.10
2017-07-31T02:02:17.023Z,18.90
2017-07-31T02:04:44.527Z,18.80
2017-07-31T02:07:11.958Z,18.80
2017-07-31T02:09:39.476Z,18.70
2017-07-31T02:12:07.030Z,18.60
2017-07-31T02:14:34.495Z,18.60
2017-07-31T02:17:02.088Z,18.50
2017-07-31T02:19:29.704Z,18.50
2017-07-31T02:21:57.197Z,18.50
2017-07-31T02:24:25.443Z,18.40
2017-07-31T02:26:52.935Z,18.40
2017-07-31T02:29:20.464Z,18.30
2017-07-31T02:31:48.257Z,18.40
2017-07-31T02:34:15.919Z,18.50
2017-07-31T02:36:43.466Z,18.60
2017-07-31T02:39:11.630Z,18.60
2017-07-31T02:41:39.103Z,18.60
2017-07-31T02:44:07.319Z,18.60
2017-07-31T02:46:34.809Z,18.60
2017-07-31T02:49:02.248Z,18.70
2017-07-31T02:51:29.742Z,18.60
2017-07-31T02:53:57.506Z,18.60
2017-07-31T02:56:24.949Z,18.50
2017-07-31T02:58:52.427Z,18.50
2017-07-31T03:01:20.706Z,18.60
2017-07-31T03:03:48.943Z,18.60
2017-07-31T03:06:16.394Z,18.60
2017-07-31T03:08:43.875Z,18.60
2017-07-31T03:11:11.346Z,18.50
2017-07-31T03:13:38.835Z,18.50
2017-07-31T03:16:06.332Z,18.30
2017-07-31T03:18:33.778Z,18.20
2017-07-31T03:21:01.231Z,18.20
2017-07-31T03:23:28.782Z,18.20
2017-07-31T03:25:56.203Z,18.30
2017-07-31T03:28:23.642Z,18.30
2017-07-31T03:30:52.157Z,18.30
2017-07-31T03:33:19.684Z,18.30
2017-07-31T03:35:47.362Z,18.20
2017-07-31T03:38:15.628Z,18.30
2017-07-31T03:40:43.083Z,18.20
2017-07-31T03:43:10.536Z,18.20
2017-07-31T03:45:38.046Z,18.20
2017-07-31T03:48:05.483Z,18.20
2017-07-31T03:50:32.931Z,18.20
2017-07-31T03:53:01.192Z,18.20
2017-07-31T03:55:28.684Z,18.20
2017-07-31T03:57:56.133Z,18.30
2017-07-31T04:00:24.051Z,18.30
2017-07-31T04:02:51.515Z,18.30
2017-07-31T04:05:19.082Z,18.30
2017-07-31T04:07:46.567Z,18.20
2017-07-31T04:10:14.013Z,18.10
2017-07-31T04:12:41.463Z,18.10
2017-07-31T04:15:08.939Z,18.10
2017-07-31T04:17:36.378Z,18.10
2017-07-31T04:20:04.589Z,18.00
2017-07-31T04:22:32.075Z,18.00
2017-07-31T04:24:59.729Z,18.10
2017-07-31T04:27:27.409Z,18.10
2017-07-31T04:29:54.930Z,18.20
2017-07-31T04:32:22.440Z,18.20
2017-07-31T04:34:49.883Z,18.20
2017-07-31T04:37:17.783Z,18.20
2017-07-31T04:42:19.421Z,18.40
2017-07-31T04:44:46.859Z,18.60
2017-07-31T04:47:14.356Z,18.60
2017-07-31T04:49:41.938Z,18.70
2017-07-31T04:52:09.388Z,18.60
2017-07-31T04:54:37.635Z,18.60
2017-07-31T04:57:05.090Z,18.60
2017-07-31T04:59:32.563Z,18.60
2017-07-31T05:02:00.026Z,18.70
2017-07-31T05:04:27.571Z,18.70
2017-07-31T05:06:55.028Z,18.70
2017-07-31T05:09:22.498Z,18.80
2017-07-31T05:11:49.955Z,18.80
2017-07-31T05:14:17.399Z,18.80
2017-07-31T05:16:44.915Z,18.80
2017-07-31T05:19:14.237Z,18.90
2017-07-31T05:21:41.728Z,18.90
2017-07-31T05:24:09.179Z,19.00
2017-07-31T05:26:36.654Z,19.00
2017-07-31T05:29:04.088Z,19.00
2017-07-31T05:31:31.571Z,19.10
2017-07-31T05:33:59.032Z,19.10
2017-07-31T05:36:27.254Z,19.10
2017-07-31T05:38:54.754Z,19.10
2017-07-31T05:41:22.215Z,19.20
2017-07-31T05:43:49.730Z,19.30
2017-07-31T05:46:17.181Z,19.40
2017-07-31T05:48:47.494Z,19.60
2017-07-31T05:51:14.964Z,19.70
2017-07-31T05:53:42.465Z,19.90
2017-07-31T05:56:10.032Z,20.00
2017-07-31T05:58:37.536Z,20.10
2017-07-31T06:01:05.048Z,20.00
2017-07-31T06:03:33.377Z,20.40
2017-07-31T06:06:00.868Z,20.40
2017-07-31T06:08:28.439Z,20.60
2017-07-31T06:10:56.399Z,20.80
2017-07-31T06:13:24.533Z,21.00
2017-07-31T06:15:52.931Z,21.00
2017-07-31T06:18:20.665Z,21.00
2017-07-31T06:20:48.239Z,21.10
2017-07-31T06:23:15.704Z,21.60
2017-07-31T06:25:44.084Z,23.60
2017-07-31T06:28:11.565Z,23.60
2017-07-31T06:30:39.694Z,24.10
2017-07-31T06:33:07.215Z,24.00
2017-07-31T06:35:35.554Z,24.30
2017-07-31T06:38:03.071Z,24.60
2017-07-31T06:40:30.583Z,24.70
2017-07-31T06:42:58.146Z,24.60
2017-07-31T06:45:25.698Z,24.50
2017-07-31T06:47:56.020Z,24.30
2017-07-31T06:50:23.515Z,24.40
2017-07-31T06:52:51.043Z,24.40
2017-07-31T06:55:19.417Z,24.20
2017-07-31T06:57:46.903Z,24.10
2017-07-31T07:00:22.095Z,24.20
2017-07-31T07:02:49.568Z,24.20
2017-07-31T07:05:17.037Z,24.00
2017-07-31T07:07:44.571Z,24.20
2017-07-31T07:10:12.080Z,24.40
2017-07-31T07:12:41.968Z,26.70
2017-07-31T07:15:09.521Z,26.60
2017-07-31T07:17:37.700Z,27.70
2017-07-31T07:20:05.170Z,29.10
2017-07-31T07:22:32.632Z,30.50
2017-07-31T07:25:00.263Z,30.60
2017-07-31T07:27:29.026Z,29.70
2017-07-31T07:29:56.501Z,28.60
2017-07-31T07:32:25.985Z,28.40
2017-07-31T07:34:55.264Z,28.70
2017-07-31T07:37:23.728Z,30.00
2017-07-31T07:39:56.817Z,31.00
2017-07-31T07:42:31.761Z,31.30
2017-07-31T07:45:03.669Z,29.80
2017-07-31T07:55:28.724Z,29.00
2017-07-31T07:58:04.490Z,28.60
2017-07-31T08:08:59.642Z,28.90
2017-07-31T08:11:28.290Z,29.20
2017-07-31T08:13:56.843Z,29.60
2017-07-31T08:16:26.245Z,30.20
2017-07-31T08:18:55.736Z,30.40
2017-07-31T08:21:27.702Z,30.50
2017-07-31T08:23:56.798Z,30.10
2017-07-31T08:26:27.127Z,30.10
2017-07-31T08:28:57.531Z,30.50
2017-07-31T08:31:25.947Z,31.00
2017-07-31T08:33:55.534Z,32.10
2017-07-31T08:36:25.558Z,32.50
2017-07-31T08:38:54.958Z,32.00
2017-07-31T08:41:22.459Z,31.80
2017-07-31T08:43:53.671Z,32.10
2017-07-31T08:46:23.781Z,32.70
2017-07-31T08:48:51.374Z,31.90
2017-07-31T08:51:21.365Z,31.50
2017-07-31T08:53:50.807Z,31.50
2017-07-31T08:56:18.449Z,31.50
2017-07-31T08:58:51.353Z,32.30
2017-07-31T09:01:21.393Z,31.70
2017-07-31T09:03:57.623Z,31.70
2017-07-31T09:06:25.968Z,32.00
2017-07-31T09:11:56.808Z,32.60
2017-07-31T09:14:26.396Z,32.50
2017-07-31T09:16:57.582Z,31.80
2017-07-31T09:19:27.674Z,32.10
2017-07-31T09:24:38.795Z,31.80
2017-07-31T09:27:07.443Z,30.70
2017-07-31T09:29:46.512Z,31.00
2017-07-31T09:32:14.851Z,31.20
2017-07-31T09:34:46.132Z,31.60
2017-07-31T09:37:13.734Z,32.50
2017-07-31T09:39:42.492Z,32.70
2017-07-31T09:42:10.032Z,32.60
2017-07-31T09:44:38.091Z,31.90
2017-07-31T09:47:08.205Z,32.00
2017-07-31T09:49:36.712Z,32.40
2017-07-31T09:52:05.305Z,32.60
2017-07-31T09:54:32.850Z,32.60
2017-07-31T09:57:03.338Z,32.60
2017-07-31T09:59:31.171Z,32.80
2017-07-31T10:02:01.073Z,31.90
2017-07-31T10:04:28.846Z,31.10
2017-07-31T10:07:01.307Z,31.00
2017-07-31T10:09:28.906Z,31.30
2017-07-31T10:11:56.369Z,31.00
2017-07-31T10:14:23.921Z,30.30
2017-07-31T10:16:52.132Z,30.10
2017-07-31T10:19:20.363Z,30.10
2017-07-31T10:21:47.988Z,30.40
2017-07-31T10:24:15.651Z,29.80
2017-07-31T10:26:43.312Z,29.40
2017-07-31T10:29:10.953Z,30.10
2017-07-31T10:31:41.552Z,30.60
2017-07-31T10:34:09.168Z,30.70
2017-07-31T10:36:38.026Z,30.70
2017-07-31T10:39:10.671Z,30.80
2017-07-31T10:41:41.112Z,31.10
2017-07-31T10:44:09.784Z,30.70
2017-07-31T10:46:38.616Z,30.30
2017-07-31T10:49:06.637Z,29.90
2017-07-31T10:51:35.141Z,30.30
2017-07-31T10:54:02.771Z,30.30
2017-07-31T10:56:31.178Z,30.20
2017-07-31T10:59:07.562Z,30.30
2017-07-31T11:01:36.524Z,30.00
2017-07-31T11:04:04.439Z,29.70
2017-07-31T11:06:34.072Z,29.50
2017-07-31T11:09:02.766Z,28.90
2017-07-31T11:11:30.361Z,28.80
2017-07-31T11:13:58.175Z,28.90
2017-07-31T11:16:25.838Z,28.60
2017-07-31T11:18:56.958Z,28.20
2017-07-31T11:21:27.629Z,27.70
2017-07-31T11:23:55.200Z,27.80
2017-07-31T11:26:23.791Z,27.80
2017-07-31T11:28:52.068Z,27.70
2017-07-31T11:31:19.836Z,27.50
2017-07-31T11:33:47.644Z,27.30
2017-07-31T11:36:17.347Z,27.30
2017-07-31T11:38:49.144Z,27.20
2017-07-31T11:41:26.773Z,26.90
2017-07-31T11:43:54.446Z,26.90
2017-07-31T11:46:22.516Z,26.90
2017-07-31T11:48:50.935Z,27.00
2017-07-31T11:51:20.839Z,27.20
2017-07-31T11:59:10.681Z,27.30
2017-07-31T12:04:30.700Z,27.30
2017-07-31T12:07:04.618Z,27.30
2017-07-31T12:09:32.983Z,27.60
2017-07-31T12:12:02.724Z,27.50
2017-07-31T12:14:30.680Z,27.70
2017-07-31T12:16:58.277Z,27.90
2017-07-31T12:19:34.933Z,27.50
2017-07-31T12:22:03.490Z,27.30
2017-07-31T12:27:12.842Z,27.60
2017-07-31T12:29:42.447Z,27.50
2017-07-31T12:32:10.126Z,27.40
2017-07-31T12:34:45.136Z,27.40
2017-07-31T12:37:14.620Z,27.40
2017-07-31T12:39:46.833Z,27.30
2017-07-31T12:42:15.285Z,27.20
2017-07-31T12:44:49.475Z,27.20
2017-07-31T12:47:17.907Z,27.20
2017-07-31T12:49:46.131Z,27.20
2017-07-31T12:52:17.630Z,27.40
2017-07-31T12:54:45.784Z,27.20
2017-07-31T12:57:14.674Z,27.20
2017-07-31T12:59:51.320Z,26.90
2017-07-31T13:02:20.232Z,26.90
2017-07-31T13:04:49.954Z,26.80
2017-07-31T13:07:18.112Z,26.80
2017-07-31T13:09:48.724Z,26.70
2017-07-31T13:12:16.315Z,26.60
2017-07-31T13:14:48.181Z,26.60
2017-07-31T13:17:15.801Z,26.50
2017-07-31T13:19:44.223Z,26.40
2017-07-31T13:22:13.510Z,26.30
2017-07-31T13:24:42.247Z,26.40
2017-07-31T13:27:09.794Z,26.50
2017-07-31T13:29:38.775Z,26.60
2017-07-31T13:32:07.441Z,26.70
2017-07-31T13:37:18.727Z,26.50
2017-07-31T13:39:54.376Z,26.50
2017-07-31T13:42:25.421Z,26.40
2017-07-31T13:44:54.697Z,26.60
2017-07-31T13:47:22.352Z,26.70
2017-07-31T13:49:54.004Z,26.90
2017-07-31T13:52:23.184Z,27.10
2017-07-31T13:54:54.245Z,27.00
2017-07-31T14:03:00.620Z,27.30
2017-07-31T14:05:39.712Z,27.40
2017-07-31T14:08:12.057Z,27.50
2017-07-31T14:10:41.275Z,27.10
2017-07-31T14:13:08.859Z,27.10
2017-07-31T14:15:37.812Z,27.00
2017-07-31T14:18:06.989Z,26.80
2017-07-31T14:20:39.237Z,26.90
2017-07-31T14:23:10.755Z,26.80
2017-07-31T14:25:40.014Z,26.80
2017-07-31T14:28:07.653Z,26.80
2017-07-31T14:30:47.881Z,26.70
2017-07-31T14:35:58.856Z,26.90
2017-07-31T14:38:44.108Z,27.00
2017-07-31T14:41:19.320Z,27.00
2017-07-31T14:43:58.233Z,27.20
2017-07-31T14:49:12.070Z,27.10
2017-07-31T14:57:13.240Z,27.20
2017-07-31T14:59:48.918Z,27.40
2017-07-31T15:02:18.640Z,27.40
2017-07-31T15:05:00.004Z,27.00
2017-07-31T15:07:45.911Z,26.90
2017-07-31T15:10:14.996Z,27.10
2017-07-31T15:12:44.221Z,27.30
2017-07-31T15:15:29.771Z,27.30
2017-07-31T15:20:53.035Z,27.20
2017-07-31T15:26:23.768Z,27.40
2017-07-31T15:28:56.371Z,27.50
2017-07-31T15:31:29.823Z,27.50
2017-07-31T15:34:01.540Z,27.40
2017-07-31T15:36:32.354Z,27.30
2017-07-31T15:39:01.816Z,27.40
2017-07-31T15:41:34.957Z,27.40
2017-07-31T16:00:53.815Z,28.00
2017-07-31T16:03:25.102Z,27.70
2017-07-31T16:05:56.440Z,27.70
2017-07-31T16:08:35.435Z,27.60
2017-07-31T16:14:05.771Z,27.60
2017-07-31T16:16:55.491Z,27.60
2017-07-31T16:19:51.436Z,27.60
2017-07-31T16:27:56.001Z,27.50
2017-07-31T16:42:14.461Z,27.40
2017-07-31T16:45:05.140Z,27.20
2017-07-31T16:47:46.895Z,27.20
2017-07-31T16:50:18.874Z,27.10
2017-07-31T16:53:03.958Z,27.00
2017-07-31T16:58:19.942Z,27.00
2017-07-31T17:01:03.205Z,26.90
2017-07-31T17:03:32.101Z,26.80
2017-07-31T17:06:02.592Z,26.70
2017-07-31T17:08:34.726Z,26.60
2017-07-31T17:13:41.610Z,26.50
2017-07-31T17:16:09.283Z,26.40
2017-07-31T17:18:42.898Z,26.40
2017-07-31T17:21:11.137Z,26.40
2017-07-31T17:23:42.049Z,26.50
2017-07-31T17:26:11.291Z,26.50
2017-07-31T17:28:53.275Z,26.50
2017-07-31T17:31:23.408Z,26.50
2017-07-31T17:33:54.576Z,26.50
2017-07-31T17:36:30.103Z,26.40
2017-07-31T17:38:58.667Z,26.30
2017-07-31T17:41:33.405Z,26.20
2017-07-31T17:44:01.972Z,26.20
2017-07-31T17:46:29.834Z,26.00
2017-07-31T17:48:57.718Z,26.00
2017-07-31T17:51:27.808Z,25.90
2017-07-31T17:53:57.296Z,25.90
2017-07-31T17:56:25.809Z,25.90
2017-07-31T17:58:54.326Z,25.90
2017-07-31T18:01:23.285Z,25.90
2017-07-31T18:04:03.004Z,25.90
2017-07-31T18:06:34.591Z,25.80
2017-07-31T18:09:02.289Z,25.70
2017-07-31T18:11:30.729Z,25.60
2017-07-31T18:14:00.181Z,25.40
2017-07-31T18:16:30.225Z,25.20
2017-07-31T18:18:59.876Z,25.20
2017-07-31T18:21:30.237Z,25.10
2017-07-31T18:24:01.530Z,25.00
2017-07-31T18:26:34.991Z,24.90
2017-07-31T18:29:04.777Z,24.80
2017-07-31T18:31:34.075Z,24.80
2017-07-31T18:34:01.935Z,24.70
2017-07-31T18:39:12.844Z,24.70
2017-07-31T18:41:41.781Z,24.60
2017-07-31T18:44:10.652Z,24.60
2017-07-31T18:46:39.134Z,24.50
2017-07-31T18:49:06.686Z,24.50
2017-07-31T18:51:34.334Z,24.40
2017-07-31T18:54:02.220Z,24.40
2017-07-31T18:56:29.883Z,24.40
2017-07-31T18:58:57.395Z,24.40
2017-07-31T19:01:25.196Z,24.30
2017-07-31T19:03:52.998Z,24.30
2017-07-31T19:06:21.647Z,24.20
2017-07-31T19:08:49.405Z,24.10
2017-07-31T19:11:17.047Z,24.10
2017-07-31T19:13:45.052Z,24.00
2017-07-31T19:16:20.545Z,23.90
2017-07-31T19:18:49.225Z,23.80
2017-07-31T19:21:18.588Z,23.80
2017-07-31T19:23:46.286Z,23.70
2017-07-31T19:26:15.343Z,23.70
2017-07-31T19:28:43.153Z,23.60
2017-07-31T19:31:10.680Z,23.60
2017-07-31T19:33:38.304Z,23.60
2017-07-31T19:36:07.240Z,23.60
2017-07-31T19:38:35.120Z,23.50
2017-07-31T19:41:03.122Z,23.50
2017-07-31T19:43:31.057Z,23.40
2017-07-31T19:45:59.590Z,23.30
2017-07-31T19:48:27.325Z,23.30
2017-07-31T19:50:54.911Z,23.20
2017-07-31T19:53:23.199Z,23.10
2017-07-31T19:55:52.751Z,23.20
2017-07-31T19:58:20.348Z,23.10
2017-07-31T20:00:48.627Z,23.10
2017-07-31T20:03:17.175Z,23.10
2017-07-31T20:05:48.362Z,23.00
2017-07-31T20:08:16.695Z,23.00
2017-07-31T20:11:00.731Z,22.90
2017-07-31T20:18:47.591Z,22.90
2017-07-31T20:21:19.800Z,22.80
2017-07-31T20:23:56.788Z,22.70
2017-07-31T20:26:30.462Z,22.70
2017-07-31T20:28:59.393Z,22.70
2017-07-31T20:31:30.846Z,22.60
2017-07-31T20:36:40.916Z,22.60
2017-07-31T20:39:20.227Z,22.60
2017-07-31T20:41:51.880Z,22.50
2017-07-31T20:44:24.877Z,22.50
2017-07-31T20:46:54.581Z,22.50
2017-07-31T20:51:57.957Z,22.50
2017-07-31T20:54:41.534Z,22.60
2017-07-31T20:57:11.644Z,22.60
2017-07-31T20:59:50.405Z,22.60
2017-07-31T21:02:31.166Z,22.60
2017-07-31T21:05:13.445Z,22.60
2017-07-31T21:19:54.560Z,22.60
2017-07-31T21:22:22.851Z,22.60
2017-07-31T21:24:57.155Z,22.50
2017-07-31T21:27:26.712Z,22.50
2017-07-31T21:29:55.281Z,22.40
2017-07-31T21:32:35.234Z,22.40
2017-07-31T21:35:04.529Z,22.30
2017-07-31T21:37:33.494Z,22.20
2017-07-31T21:40:01.292Z,22.10
2017-07-31T21:42:29.052Z,22.10
2017-07-31T21:45:00.588Z,22.10
2017-07-31T21:47:28.217Z,22.10
2017-07-31T21:49:56.953Z,22.10
2017-07-31T21:52:24.482Z,22.00
2017-07-31T21:54:52.141Z,22.00
2017-07-31T21:59:58.194Z,22.00
2017-07-31T22:02:25.704Z,22.00
2017-07-31T22:04:57.827Z,22.10
2017-07-31T22:07:25.648Z,22.10
2017-07-31T22:09:53.138Z,22.10
2017-07-31T22:14:57.595Z,22.10
2017-07-31T22:17:34.661Z,22.00
2017-07-31T22:20:02.398Z,21.90
2017-07-31T22:22:31.031Z,21.80
2017-07-31T22:24:58.762Z,21.80
2017-07-31T22:27:26.408Z,21.80
2017-07-31T22:29:54.377Z,21.80
2017-07-31T22:32:22.832Z,21.80
2017-07-31T22:34:50.500Z,21.80
2017-07-31T22:37:20.888Z,21.70
2017-07-31T22:39:48.391Z,21.60
2017-07-31T22:42:16.756Z,21.60
2017-07-31T22:44:47.939Z,21.60
2017-07-31T22:47:15.475Z,21.60
2017-07-31T22:49:43.116Z,21.60
2017-07-31T22:52:15.804Z,21.70
2017-07-31T22:54:43.471Z,21.70
2017-07-31T22:57:14.423Z,21.70
2017-07-31T22:59:43.296Z,21.70
2017-07-31T23:02:11.600Z,21.70
2017-07-31T23:04:39.159Z,21.70
2017-07-31T23:07:07.688Z,21.70
2017-07-31T23:09:37.422Z,21.70
2017-07-31T23:12:11.504Z,21.60
2017-07-31T23:14:47.388Z,21.70
2017-07-31T23:17:18.114Z,21.70
2017-07-31T23:19:46.208Z,21.60
2017-07-31T23:22:13.930Z,21.60
2017-07-31T23:24:46.252Z,21.60
2017-07-31T23:27:14.046Z,21.60
2017-07-31T23:29:44.253Z,21.70
2017-07-31T23:32:11.824Z,21.70
2017-07-31T23:34:39.370Z,21.80
2017-07-31T23:37:07.550Z,21.80
2017-07-31T23:39:36.615Z,21.90
2017-07-31T23:42:09.118Z,21.90
2017-07-31T23:44:38.016Z,21.90
2017-07-31T23:47:08.189Z,22.00
2017-07-31T23:49:36.542Z,22.00
2017-07-31T23:52:11.187Z,22.00
2017-07-31T23:54:38.743Z,21.90
2017-07-31T23:57:10.176Z,21.90
2017-07-31T23:59:38.237Z,21.70
